Time;durP1;ratioP1;P1;durP2;ratioP2;P2;SDS_P1;SDS_P2;PMS_P1;PMS_P2;Temp;Humidity;BMP_temperature;BMP_pressure;BME280_temperature;BME280_humidity;BME280_pressure;Samples;Min_cycle;Max_cycle;Signal;HPM_P1;HPM_P2
2024/01/30 00:01:37;;;;;;;23.80;18.60;;;;;;;0.22;100.00;101510.34;5046116;28;20214;-66
2024/01/30 00:04:03;;;;;;;25.40;17.83;;;;;;;0.22;100.00;101501.03;5033603;28;20889;-66
2024/01/30 00:06:28;;;;;;;25.47;18.73;;;;;;;0.19;100.00;101502.69;5033504;28;20187;-66
2024/01/30 00:08:53;;;;;;;24.13;18.43;;;;;;;0.04;100.00;101501.69;5031764;28;20303;-65
2024/01/30 00:11:19;;;;;;;24.27;18.20;;;;;;;0.02;100.00;101505.06;5034102;28;20230;-65
2024/01/30 00:13:44;;;;;;;27.70;18.17;;;;;;;0.00;100.00;101510.09;5043192;28;20183;-63
2024/01/30 00:16:21;;;;;;;24.70;19.30;;;;;;;0.00;100.00;101507.56;5031840;28;20627;-63
2024/01/30 00:18:47;;;;;;;23.70;18.30;;;;;;;-0.08;100.00;101507.44;5031773;28;20269;-64
2024/01/30 00:21:13;;;;;;;24.90;17.97;;;;;;;-0.03;100.00;101503.28;5040456;28;20298;-64
2024/01/30 00:23:38;;;;;;;26.10;18.63;;;;;;;0.01;100.00;101503.34;5044661;28;20205;-64
2024/01/30 00:26:05;;;;;;;24.23;18.87;;;;;;;-0.08;100.00;101504.09;5032178;28;20199;-64
2024/01/30 00:28:30;;;;;;;23.37;16.80;;;;;;;-0.08;100.00;101507.44;5030657;28;20294;-67
2024/01/30 00:30:55;;;;;;;27.23;19.37;;;;;;;-0.19;100.00;101509.00;5014499;28;20252;-63
2024/01/30 00:33:21;;;;;;;26.10;17.90;;;;;;;-0.15;100.00;101504.84;5036662;28;20225;-64
2024/01/30 00:35:46;;;;;;;23.63;18.17;;;;;;;-0.17;100.00;101505.66;5038279;28;20191;-64
2024/01/30 00:38:12;;;;;;;28.27;19.03;;;;;;;-0.30;100.00;101505.50;5031584;28;20249;-63
2024/01/30 00:40:37;;;;;;;25.03;18.83;;;;;;;-0.17;100.00;101508.19;5023281;28;20240;-63
2024/01/30 00:43:02;;;;;;;27.33;18.63;;;;;;;-0.25;100.00;101502.22;5049247;28;20645;-63
2024/01/30 00:45:28;;;;;;;23.60;18.27;;;;;;;-0.21;100.00;101505.59;5026744;28;20210;-64
2024/01/30 00:47:53;;;;;;;26.83;19.13;;;;;;;-0.34;100.00;101512.19;5030869;28;20269;-64
2024/01/30 00:50:19;;;;;;;24.53;18.70;;;;;;;-0.27;100.00;101508.03;5064931;28;20567;-67
2024/01/30 00:52:44;;;;;;;26.60;18.57;;;;;;;-0.28;100.00;101503.84;5058040;28;20279;-69
2024/01/30 00:55:10;;;;;;;25.97;18.77;;;;;;;-0.27;100.00;101503.00;5031521;28;20182;-67
2024/01/30 00:57:36;;;;;;;24.93;18.27;;;;;;;-0.26;100.00;101502.16;5029910;28;20647;-66
2024/01/30 01:00:01;;;;;;;27.47;17.03;;;;;;;-0.43;100.00;101512.91;5029669;28;20183;-67
2024/01/30 01:02:27;;;;;;;26.97;18.40;;;;;;;-0.35;100.00;101510.47;5019696;28;20227;-66
2024/01/30 01:04:52;;;;;;;30.13;18.30;;;;;;;-0.27;100.00;101511.44;5022682;28;20189;-66
2024/01/30 01:07:17;;;;;;;28.40;19.00;;;;;;;-0.28;100.00;101507.22;5035548;28;20183;-63
2024/01/30 01:09:42;;;;;;;26.40;18.20;;;;;;;-0.30;100.00;101503.81;5029744;28;20202;-63
2024/01/30 01:12:08;;;;;;;22.03;16.60;;;;;;;-0.31;100.00;101511.38;5052881;28;20275;-63
2024/01/30 01:14:33;;;;;;;23.90;17.33;;;;;;;-0.46;100.00;101515.38;5031593;28;20185;-63
2024/01/30 01:16:58;;;;;;;26.53;18.77;;;;;;;-0.69;100.00;101510.88;5030934;28;20223;-64
2024/01/30 01:19:23;;;;;;;27.93;18.27;;;;;;;-0.60;100.00;101514.38;5031042;28;20198;-66
2024/01/30 01:21:49;;;;;;;23.13;17.43;;;;;;;-0.56;100.00;101514.44;5048619;28;20254;-67
2024/01/30 01:24:14;;;;;;;23.50;17.27;;;;;;;-0.47;100.00;101517.91;5031765;28;20556;-66
2024/01/30 01:26:39;;;;;;;27.33;18.47;;;;;;;-0.48;100.00;101522.13;5030830;28;20174;-64
2024/01/30 01:29:09;;;;;;;24.77;18.37;;;;;;;-0.47;100.00;101517.91;5030658;28;20286;-64
2024/01/30 01:31:43;;;;;;;29.80;18.43;;;;;;;-0.65;100.00;101517.66;5034821;28;20225;-64
2024/01/30 01:34:12;;;;;;;25.83;17.83;;;;;;;-0.62;100.00;101518.53;5032172;28;20180;-62
2024/01/30 01:36:38;;;;;;;27.13;18.23;;;;;;;-0.67;100.00;101516.81;5029772;28;20633;-63
2024/01/30 01:39:03;;;;;;;22.57;16.93;;;;;;;-0.69;100.00;101510.88;5032355;28;20191;-63
2024/01/30 01:41:32;;;;;;;23.93;17.83;;;;;;;-0.66;100.00;101510.06;5043968;28;20301;-65
2024/01/30 01:43:59;;;;;;;30.03;18.23;;;;;;;-0.54;100.00;101512.75;5040356;28;20205;-63
2024/01/30 01:46:27;;;;;;;23.00;18.03;;;;;;;-0.54;100.00;101506.88;5030431;28;20764;-64
2024/01/30 01:48:52;;;;;;;27.27;19.20;;;;;;;-0.46;100.00;101507.81;5032795;28;20251;-62
2024/01/30 01:51:19;;;;;;;25.77;17.87;;;;;;;-0.42;100.00;101506.16;5040996;28;20224;-63
2024/01/30 01:53:44;;;;;;;26.00;18.97;;;;;;;-0.45;100.00;101503.63;5041805;28;20244;-64
2024/01/30 01:56:10;;;;;;;26.13;17.17;;;;;;;-0.48;100.00;101506.94;5030703;28;20178;-63
2024/01/30 01:58:38;;;;;;;24.97;17.80;;;;;;;-0.50;100.00;101503.53;5030911;28;20213;-62
2024/01/30 02:01:04;;;;;;;26.60;18.93;;;;;;;-0.54;100.00;101507.69;5039433;28;20249;-63
2024/01/30 02:03:30;;;;;;;30.70;18.67;;;;;;;-0.53;100.00;101511.09;5036605;28;20179;-65
2024/01/30 02:05:56;;;;;;;22.43;17.50;;;;;;;-0.52;100.00;101497.59;5029471;28;20608;-64
2024/01/30 02:08:23;;;;;;;26.80;18.30;;;;;;;-0.57;100.00;101495.03;5029400;28;20226;-63
2024/01/30 02:10:48;;;;;;;24.77;17.97;;;;;;;-0.59;100.00;101495.84;5032835;28;20223;-63
2024/01/30 02:13:14;;;;;;;26.17;17.80;;;;;;;-0.79;100.00;101490.47;5053055;28;20209;-63
2024/01/30 02:15:39;;;;;;;25.83;18.47;;;;;;;-0.86;100.00;101494.59;5033855;28;20184;-65
2024/01/30 02:18:04;;;;;;;27.03;18.33;;;;;;;-0.77;100.00;101493.88;5034342;28;20352;-64
2024/01/30 02:20:32;;;;;;;27.00;19.13;;;;;;;-0.71;100.00;101496.50;5026350;28;20243;-64
2024/01/30 02:22:58;;;;;;;22.87;17.27;;;;;;;-0.73;100.00;101491.44;5035238;28;20265;-65
2024/01/30 02:25:52;;;;;;;26.33;17.70;;;;;;;-0.84;100.00;101493.81;5030551;28;20190;-63
2024/01/30 02:28:19;;;;;;;31.23;19.53;;;;;;;-0.65;100.00;101499.13;5034236;28;20207;-65
2024/01/30 02:30:45;;;;;;;26.17;18.00;;;;;;;-0.64;100.00;101493.25;5030067;28;20225;-66
2024/01/30 02:33:11;;;;;;;26.73;17.27;;;;;;;-0.64;100.00;101498.31;5054022;28;20170;-63
2024/01/30 02:35:36;;;;;;;26.83;16.67;;;;;;;-0.60;100.00;101501.72;5032442;28;20200;-63
2024/01/30 02:38:01;;;;;;;28.00;17.70;;;;;;;-0.65;100.00;101499.97;5033967;28;20178;-64
2024/01/30 02:40:27;;;;;;;22.23;17.37;;;;;;;-0.68;100.00;101507.50;5029909;28;20244;-63
2024/01/30 02:42:52;;;;;;;24.57;17.27;;;;;;;-0.70;100.00;101498.22;5063134;28;20183;-63
2024/01/30 02:45:18;;;;;;;26.70;18.50;;;;;;;-0.71;100.00;101504.97;5039600;28;20171;-63
2024/01/30 02:47:43;;;;;;;22.47;16.97;;;;;;;-0.62;100.00;101511.81;5019283;28;20193;-63
2024/01/30 02:50:09;;;;;;;24.70;18.80;;;;;;;-0.69;100.00;101504.97;5015539;28;20187;-63
2024/01/30 02:52:34;;;;;;;25.83;18.67;;;;;;;-0.75;100.00;101507.41;5030600;28;20210;-65
2024/01/30 02:54:59;;;;;;;28.33;18.80;;;;;;;-0.88;100.00;101497.13;5033265;28;20178;-63
2024/01/30 02:57:25;;;;;;;26.90;16.83;;;;;;;-0.94;100.00;101502.06;5020049;28;20660;-66
2024/01/30 02:59:51;;;;;;;30.13;20.40;;;;;;;-1.02;100.00;101496.03;5020399;28;20543;-63
2024/01/30 03:02:16;;;;;;;24.63;18.63;;;;;;;-1.04;100.00;101495.16;5054637;28;20224;-64
2024/01/30 03:04:42;;;;;;;26.70;19.10;;;;;;;-1.06;100.00;101491.78;5020129;28;20185;-63
2024/01/30 03:07:07;;;;;;;27.27;18.40;;;;;;;-0.90;100.00;101490.34;5033391;28;20185;-62
2024/01/30 03:09:33;;;;;;;30.67;20.63;;;;;;;-0.94;100.00;101489.44;5032957;28;20251;-62
2024/01/30 03:11:58;;;;;;;26.60;18.83;;;;;;;-0.87;100.00;101486.19;5053089;28;20273;-63
2024/01/30 03:14:23;;;;;;;29.30;18.10;;;;;;;-0.86;100.00;101487.88;5033855;28;20190;-63
2024/01/30 03:16:48;;;;;;;23.80;17.10;;;;;;;-0.83;100.00;101492.97;5032998;28;20633;-63
2024/01/30 03:19:14;;;;;;;28.20;19.13;;;;;;;-0.84;100.00;101487.91;5037114;28;20198;-63
2024/01/30 03:21:39;;;;;;;24.47;17.07;;;;;;;-0.99;100.00;101493.59;5048114;28;20220;-63
2024/01/30 03:24:05;;;;;;;25.17;18.17;;;;;;;-0.85;100.00;101489.56;5038596;28;20175;-63
2024/01/30 03:26:30;;;;;;;24.20;17.97;;;;;;;-0.85;100.00;101482.00;5037655;28;20585;-64
2024/01/30 03:28:55;;;;;;;28.20;17.60;;;;;;;-0.83;100.00;101482.88;5035594;28;20228;-63
2024/01/30 03:31:21;;;;;;;21.30;16.07;;;;;;;-0.85;100.00;101494.63;5043394;28;20216;-69
2024/01/30 03:33:46;;;;;;;26.33;18.17;;;;;;;-0.87;100.00;101493.78;5043344;28;20265;-63
2024/01/30 03:36:11;;;;;;;22.60;17.73;;;;;;;-0.91;100.00;101483.59;5032775;28;20212;-63
2024/01/30 03:38:37;;;;;;;24.77;17.83;;;;;;;-0.89;100.00;101492.03;5032544;28;20190;-63
2024/01/30 03:41:02;;;;;;;24.27;17.80;;;;;;;-0.90;100.00;101487.81;5038224;28;20243;-63
2024/01/30 03:43:27;;;;;;;23.57;17.63;;;;;;;-0.91;100.00;101494.53;5047616;28;20614;-62
2024/01/30 03:45:53;;;;;;;25.63;17.43;;;;;;;-1.09;100.00;101491.72;5032643;28;20277;-62
2024/01/30 03:48:19;;;;;;;25.90;18.27;;;;;;;-1.16;100.00;101499.19;5032433;28;20204;-62
2024/01/30 03:50:44;;;;;;;29.33;18.77;;;;;;;-1.01;100.00;101485.13;5042685;28;20228;-62
2024/01/30 03:53:09;;;;;;;23.83;17.73;;;;;;;-0.96;100.00;101487.72;5052566;28;20228;-63
2024/01/30 03:55:34;;;;;;;28.33;18.70;;;;;;;-0.91;100.00;101486.13;5031051;28;20189;-63
2024/01/30 03:58:00;;;;;;;25.07;18.03;;;;;;;-0.90;100.00;101481.06;5031970;28;20228;-63
2024/01/30 04:00:25;;;;;;;25.67;18.67;;;;;;;-0.89;100.00;101485.31;5026603;28;20240;-63
2024/01/30 04:02:51;;;;;;;26.53;19.10;;;;;;;-0.88;100.00;101481.97;5055433;28;20197;-63
2024/01/30 04:05:16;;;;;;;30.90;18.90;;;;;;;-0.90;100.00;101483.59;5021003;28;20186;-62
2024/01/30 04:07:42;;;;;;;23.97;18.57;;;;;;;-1.04;100.00;101480.00;5032025;28;20178;-63
2024/01/30 04:10:09;;;;;;;25.47;19.30;;;;;;;-0.89;100.00;101481.94;5023214;28;20185;-63
2024/01/30 04:12:35;;;;;;;28.33;19.70;;;;;;;-0.87;100.00;101480.28;5061204;28;20213;-63
2024/01/30 04:15:00;;;;;;;25.97;20.07;;;;;;;-0.87;100.00;101485.31;5031957;28;20565;-64
2024/01/30 04:17:25;;;;;;;27.23;18.90;;;;;;;-0.89;100.00;101472.69;5031908;28;20490;-64
2024/01/30 04:19:50;;;;;;;25.47;17.67;;;;;;;-0.90;100.00;101475.19;5032099;28;20188;-63
2024/01/30 04:22:16;;;;;;;23.83;17.30;;;;;;;-0.94;100.00;101488.56;5052922;28;20224;-64
2024/01/30 04:24:41;;;;;;;25.50;17.53;;;;;;;-0.97;100.00;101484.34;5031915;28;20182;-63
2024/01/30 04:27:06;;;;;;;27.10;18.40;;;;;;;-0.90;100.00;101482.78;5031505;28;20179;-64
2024/01/30 04:29:32;;;;;;;31.27;18.57;;;;;;;-0.88;100.00;101486.16;5030463;28;20190;-63
2024/01/30 04:31:58;;;;;;;24.63;18.77;;;;;;;-0.87;100.00;101485.31;5017198;28;20294;-63
2024/01/30 04:34:23;;;;;;;25.33;16.80;;;;;;;-0.89;100.00;101484.47;5032747;28;20188;-62
2024/01/30 04:36:48;;;;;;;29.93;18.43;;;;;;;-1.03;100.00;101490.16;5031503;28;20180;-63
2024/01/30 04:39:13;;;;;;;28.93;19.17;;;;;;;-0.90;100.00;101493.72;5031620;28;20659;-63
2024/01/30 04:41:39;;;;;;;25.73;18.17;;;;;;;-0.89;100.00;101487.84;5046457;28;20263;-64
2024/01/30 04:44:04;;;;;;;25.93;19.00;;;;;;;-0.95;100.00;101481.84;5037445;28;20186;-64
2024/01/30 04:46:30;;;;;;;24.20;17.17;;;;;;;-0.90;100.00;101476.03;5031526;28;20306;-63
2024/01/30 04:48:55;;;;;;;28.70;18.73;;;;;;;-0.91;100.00;101481.91;5035400;28;20200;-63
2024/01/30 04:51:20;;;;;;;21.97;17.53;;;;;;;-0.98;100.00;101480.97;5047026;28;20622;-66
2024/01/30 04:53:45;;;;;;;24.07;19.20;;;;;;;-1.04;100.00;101482.53;5042348;28;20220;-63
2024/01/30 04:56:11;;;;;;;22.70;17.97;;;;;;;-1.07;100.00;101485.03;5031530;28;20281;-63
2024/01/30 04:58:36;;;;;;;29.17;19.73;;;;;;;-1.11;100.00;101488.34;5031287;28;20268;-63
2024/01/30 05:01:02;;;;;;;32.53;20.37;;;;;;;-1.06;100.00;101487.56;5036463;28;20559;-63
2024/01/30 05:03:27;;;;;;;24.17;18.20;;;;;;;-0.96;100.00;101497.81;5040024;28;20183;-62
2024/01/30 05:05:53;;;;;;;27.23;18.77;;;;;;;-0.96;100.00;101490.25;5025026;28;20278;-63
2024/01/30 05:08:18;;;;;;;27.20;18.33;;;;;;;-0.96;100.00;101496.13;5050039;28;20198;-62
2024/01/30 05:10:43;;;;;;;26.83;17.87;;;;;;;-0.92;100.00;101497.88;5031647;28;20687;-64
2024/01/30 05:13:08;;;;;;;29.40;18.50;;;;;;;-1.10;100.00;101493.41;5051424;28;20181;-62
2024/01/30 05:15:34;;;;;;;26.47;18.63;;;;;;;-1.02;100.00;101496.91;5031390;28;20190;-63
2024/01/30 05:17:59;;;;;;;26.63;18.17;;;;;;;-1.03;100.00;101494.34;5031214;28;20276;-63
2024/01/30 05:20:27;;;;;;;28.10;18.77;;;;;;;-1.02;100.00;101491.00;5025386;28;20304;-64
2024/01/30 05:22:53;;;;;;;26.97;18.00;;;;;;;-1.06;100.00;101486.72;5055662;28;20258;-63
2024/01/30 05:25:18;;;;;;;25.93;17.83;;;;;;;-1.12;100.00;101495.03;5029597;28;20193;-63
2024/01/30 05:27:44;;;;;;;28.17;18.20;;;;;;;-1.08;100.00;101504.38;5030823;28;20212;-63
2024/01/30 05:30:10;;;;;;;29.07;19.10;;;;;;;-1.05;100.00;101499.38;5022463;28;20213;-66
2024/01/30 05:32:35;;;;;;;28.43;19.00;;;;;;;-1.05;100.00;101501.91;5044431;28;20235;-63
2024/01/30 05:35:01;;;;;;;33.87;19.30;;;;;;;-1.04;100.00;101501.06;5030711;28;20274;-64
2024/01/30 05:37:26;;;;;;;27.10;19.53;;;;;;;-1.02;100.00;101504.50;5030973;28;20190;-63
2024/01/30 05:39:51;;;;;;;24.87;18.07;;;;;;;-1.02;100.00;101506.16;5030920;28;20287;-63
2024/01/30 05:42:17;;;;;;;24.27;18.33;;;;;;;-1.15;100.00;101500.06;5051743;28;20217;-63
2024/01/30 05:44:42;;;;;;;23.03;17.73;;;;;;;-1.21;100.00;101499.97;5029226;28;20710;-64
2024/01/30 05:47:07;;;;;;;24.37;17.33;;;;;;;-1.16;100.00;101493.31;5034301;28;20224;-63
2024/01/30 05:49:33;;;;;;;26.13;18.33;;;;;;;-1.08;100.00;101501.88;5043684;28;20672;-64
2024/01/30 05:51:58;;;;;;;24.90;18.37;;;;;;;-1.10;100.00;101487.47;5054443;28;20244;-63
2024/01/30 05:54:23;;;;;;;25.17;17.67;;;;;;;-1.08;100.00;101490.91;5035689;28;20210;-63
2024/01/30 05:56:48;;;;;;;23.80;18.13;;;;;;;-1.08;100.00;101490.91;5032853;28;20755;-63
2024/01/30 05:59:14;;;;;;;29.17;18.63;;;;;;;-1.10;100.00;101493.41;5034644;28;20186;-63
2024/01/30 06:01:48;;;;;;;25.63;18.67;;;;;;;-1.17;100.00;101497.50;5049559;28;20229;-63
2024/01/30 06:04:14;;;;;;;26.97;19.90;;;;;;;-1.02;100.00;101496.03;5024985;28;20205;-63
2024/01/30 06:06:39;;;;;;;26.47;18.03;;;;;;;-0.99;100.00;101498.63;5034047;28;20193;-63
2024/01/30 06:09:05;;;;;;;27.57;20.27;;;;;;;-0.98;100.00;101497.78;5033818;28;20194;-64
2024/01/30 06:11:30;;;;;;;27.00;18.60;;;;;;;-1.02;100.00;101501.09;5058274;28;20228;-63
2024/01/30 06:13:55;;;;;;;29.17;19.60;;;;;;;-1.01;100.00;101500.28;5038482;28;20196;-63
2024/01/30 06:16:21;;;;;;;25.27;18.33;;;;;;;-1.09;100.00;101505.22;5032762;28;20178;-63
2024/01/30 06:18:47;;;;;;;30.20;18.60;;;;;;;-1.06;100.00;101506.94;5032687;28;20232;-63
2024/01/30 06:21:12;;;;;;;29.87;19.73;;;;;;;-1.08;100.00;101516.16;5042728;28;20244;-63
2024/01/30 06:23:38;;;;;;;28.43;18.53;;;;;;;-1.10;100.00;101510.22;5046539;28;20600;-63
2024/01/30 06:26:03;;;;;;;23.17;17.70;;;;;;;-1.03;100.00;101514.53;5034198;28;20681;-63
2024/01/30 06:28:28;;;;;;;34.43;18.60;;;;;;;-1.08;100.00;101514.50;5033723;28;20297;-64
2024/01/30 06:30:54;;;;;;;23.93;18.33;;;;;;;-1.09;100.00;101509.38;5019372;28;20303;-63
2024/01/30 06:33:19;;;;;;;28.23;19.40;;;;;;;-1.07;100.00;101510.28;5051510;28;20233;-63
2024/01/30 06:35:45;;;;;;;24.57;18.87;;;;;;;-1.08;100.00;101511.09;5033810;28;20213;-64
2024/01/30 06:38:11;;;;;;;31.73;18.83;;;;;;;-1.11;100.00;101516.94;5033775;28;20574;-63
2024/01/30 06:40:36;;;;;;;25.50;17.70;;;;;;;-1.05;100.00;101517.06;5032367;28;20262;-63
2024/01/30 06:43:01;;;;;;;27.13;19.13;;;;;;;-1.06;100.00;101520.41;5055682;28;20181;-63
2024/01/30 06:45:27;;;;;;;29.63;20.17;;;;;;;-1.14;100.00;101512.69;5033152;28;20190;-63
2024/01/30 06:47:52;;;;;;;29.17;19.17;;;;;;;-1.21;100.00;101518.47;5032354;28;20194;-63
2024/01/30 06:50:18;;;;;;;27.80;19.37;;;;;;;-1.22;100.00;101514.25;5036324;28;20364;-63
2024/01/30 06:52:43;;;;;;;27.80;19.27;;;;;;;-1.15;100.00;101518.56;5045617;28;20260;-63
2024/01/30 06:55:09;;;;;;;28.70;20.57;;;;;;;-1.16;100.00;101518.56;5033189;28;20182;-63
2024/01/30 06:57:34;;;;;;;28.93;20.03;;;;;;;-1.12;100.00;101519.47;5032660;28;20595;-63
2024/01/30 07:00:00;;;;;;;25.77;19.03;;;;;;;-1.11;100.00;101511.06;5033215;28;20229;-64
2024/01/30 07:02:25;;;;;;;25.80;19.50;;;;;;;-1.06;100.00;101509.47;5038386;28;20224;-63
2024/01/30 07:04:50;;;;;;;26.90;19.70;;;;;;;-1.09;100.00;101511.91;5019615;28;20182;-63
2024/01/30 07:07:15;;;;;;;24.27;18.33;;;;;;;-1.11;100.00;101518.63;5033295;28;20639;-63
2024/01/30 07:09:41;;;;;;;22.93;18.43;;;;;;;-1.10;100.00;101516.13;5032873;28;20198;-63
2024/01/30 07:12:06;;;;;;;29.57;18.90;;;;;;;-1.27;100.00;101515.84;5054342;28;20232;-63
2024/01/30 07:14:32;;;;;;;28.03;19.87;;;;;;;-1.19;100.00;101521.88;5031775;28;20463;-62
2024/01/30 07:16:57;;;;;;;26.27;19.87;;;;;;;-1.05;100.00;101517.06;5032878;28;20194;-64
2024/01/30 07:19:22;;;;;;;28.80;19.37;;;;;;;-0.99;100.00;101517.16;5032834;28;20214;-63
2024/01/30 07:21:47;;;;;;;29.20;20.73;;;;;;;-0.93;100.00;101518.06;5050564;28;20567;-64
2024/01/30 07:24:13;;;;;;;31.53;20.47;;;;;;;-0.92;100.00;101519.78;5036787;28;20182;-64
2024/01/30 07:26:38;;;;;;;31.57;20.90;;;;;;;-0.87;100.00;101513.97;5033106;28;20196;-64
2024/01/30 07:29:03;;;;;;;32.10;21.63;;;;;;;-0.76;100.00;101521.69;5032595;28;20527;-63
2024/01/30 07:31:29;;;;;;;33.97;22.07;;;;;;;-0.67;100.00;101523.50;5045222;28;20221;-64
2024/01/30 07:33:54;;;;;;;32.50;21.33;;;;;;;-0.58;100.00;101518.59;5041483;28;20688;-64
2024/01/30 07:36:20;;;;;;;28.53;19.53;;;;;;;-0.47;100.00;101516.25;5032725;28;20186;-65
2024/01/30 07:38:45;;;;;;;26.97;20.07;;;;;;;-0.45;100.00;101518.78;5032170;28;20324;-64
2024/01/30 07:41:11;;;;;;;29.57;19.90;;;;;;;-0.54;100.00;101519.50;5040736;28;20232;-64
2024/01/30 07:43:38;;;;;;;34.13;20.90;;;;;;;-0.35;100.00;101524.00;5045915;28;20272;-63
2024/01/30 07:46:03;;;;;;;29.70;20.40;;;;;;;-0.33;100.00;101524.00;5031137;28;20313;-63
2024/01/30 07:48:29;;;;;;;23.33;19.20;;;;;;;-0.28;100.00;101513.97;5032597;28;20277;-64
2024/01/30 07:50:54;;;;;;;31.27;20.97;;;;;;;-0.33;100.00;101517.25;5043964;28;20236;-64
2024/01/30 07:53:19;;;;;;;31.40;21.60;;;;;;;-0.24;100.00;101519.06;5047605;28;20190;-63
2024/01/30 08:02:28;;;;;;;28.47;20.70;;;;;;;0.35;100.00;101540.00;5012777;28;20229;-63
2024/01/30 08:04:53;;;;;;;29.33;21.80;;;;;;;0.48;100.00;101534.25;5031889;28;20181;-64
2024/01/30 08:07:19;;;;;;;25.00;20.23;;;;;;;0.75;100.00;101534.50;5030597;28;20198;-64
2024/01/30 08:09:44;;;;;;;28.03;21.87;;;;;;;0.94;100.00;101532.97;5031806;28;20326;-64
2024/01/30 08:12:10;;;;;;;34.47;23.97;;;;;;;1.00;100.00;101529.63;5053458;28;20247;-67
2024/01/30 08:14:35;;;;;;;31.50;21.40;;;;;;;1.05;100.00;101530.53;5032061;28;20360;-67
2024/01/30 08:17:00;;;;;;;32.87;22.97;;;;;;;1.05;100.00;101528.81;5031731;28;20639;-66
2024/01/30 08:19:26;;;;;;;31.20;21.60;;;;;;;1.23;100.00;101532.34;5030560;28;20537;-65
2024/01/30 08:21:51;;;;;;;28.53;21.37;;;;;;;1.34;100.00;101523.13;5049974;28;20231;-67
2024/01/30 08:24:16;;;;;;;29.57;21.83;;;;;;;1.51;100.00;101537.59;5031957;28;20197;-66
2024/01/30 08:26:42;;;;;;;31.67;21.73;;;;;;;1.54;100.00;101524.91;5031769;28;20261;-72
2024/01/30 08:29:07;;;;;;;29.00;20.17;;;;;;;1.60;100.00;101532.56;5031755;28;20216;-65
2024/01/30 08:31:32;;;;;;;31.43;21.10;;;;;;;1.63;100.00;101534.31;5020243;28;20220;-65
2024/01/30 08:33:58;;;;;;;27.90;20.77;;;;;;;1.86;100.00;101526.78;5028159;28;20242;-65
2024/01/30 08:36:23;;;;;;;29.83;19.87;;;;;;;1.90;100.00;101536.97;5030059;28;20186;-65
2024/01/30 08:38:49;;;;;;;25.37;19.60;;;;;;;1.85;100.00;101525.94;5031041;28;20259;-65
2024/01/30 08:41:14;;;;;;;28.57;18.93;;;;;;;2.05;100.00;101518.41;5040145;28;20217;-65
2024/01/30 08:43:39;;;;;;;26.63;19.20;;;;;;;2.03;100.00;101526.88;5043697;28;20213;-65
2024/01/30 08:46:04;;;;;;;27.47;18.03;;;;;;;1.75;100.00;101521.69;5031128;28;20263;-65
2024/01/30 08:48:30;;;;;;;24.87;18.40;;;;;;;1.76;100.00;101524.22;5031401;28;20233;-67
2024/01/30 08:50:56;;;;;;;24.70;18.93;;;;;;;1.64;100.00;101529.22;5030991;28;20228;-65
2024/01/30 08:53:22;;;;;;;22.57;18.50;;;;;;;1.93;100.00;101526.84;5038600;28;20204;-65
2024/01/30 08:55:47;;;;;;;27.97;18.27;;;;;;;2.17;100.00;101527.78;5031212;28;20216;-66
2024/01/30 08:58:12;;;;;;;23.87;17.97;;;;;;;2.39;100.00;101531.22;5031138;28;20190;-64
2024/01/30 09:00:37;;;;;;;21.13;16.93;;;;;;;2.22;100.00;101532.84;5030370;28;20592;-66
2024/01/30 09:03:03;;;;;;;25.57;17.90;;;;;;;2.57;100.00;101532.09;5049852;28;20206;-66
2024/01/30 09:05:28;;;;;;;21.03;16.97;;;;;;;2.32;100.00;101534.59;5020636;28;20178;-66
2024/01/30 09:07:54;;;;;;;23.87;19.77;;;;;;;2.25;100.00;101532.88;5031073;28;20667;-65
2024/01/30 09:10:20;;;;;;;24.93;19.10;;;;;;;2.33;100.00;101540.50;5025767;28;20348;-65
2024/01/30 09:12:45;;;;;;;23.83;18.37;;;;;;;2.21;100.00;101528.63;5057182;28;20182;-65
2024/01/30 09:15:11;;;;;;;25.30;17.77;;;;;;;2.58;100.00;101534.63;5029896;28;20189;-63
2024/01/30 09:17:36;;;;;;;25.23;17.87;;;;;;;2.67;100.00;101533.78;5030813;28;20228;-64
2024/01/30 09:20:01;;;;;;;21.80;17.30;;;;;;;2.42;100.00;101538.00;5029022;28;20191;-66
2024/01/30 09:22:27;;;;;;;22.33;18.13;;;;;;;2.55;100.00;101538.88;5043978;28;20233;-66
2024/01/30 09:24:52;;;;;;;23.47;17.17;;;;;;;2.54;100.00;101552.41;5034807;28;20178;-68
2024/01/30 09:27:17;;;;;;;20.43;15.70;;;;;;;2.67;100.00;101548.22;5034757;28;20178;-64
2024/01/30 09:29:43;;;;;;;27.87;17.93;;;;;;;2.70;100.00;101551.56;5033935;28;20282;-64
2024/01/30 09:32:09;;;;;;;23.93;17.50;;;;;;;2.88;100.00;101552.47;5041969;28;20255;-64
2024/01/30 09:34:34;;;;;;;23.10;17.37;;;;;;;3.35;100.00;101545.66;5033619;28;20193;-65
2024/01/30 09:37:00;;;;;;;23.77;18.83;;;;;;;3.06;100.00;101549.94;5034572;28;20590;-64
2024/01/30 09:39:25;;;;;;;22.77;18.17;;;;;;;3.15;100.00;101548.22;5033614;28;20178;-65
2024/01/30 09:42:11;;;;;;;20.47;16.93;;;;;;;3.09;100.00;101550.75;5052980;28;20580;-66
2024/01/30 09:44:38;;;;;;;25.23;15.80;;;;;;;3.51;100.00;101549.00;5033274;28;20224;-65
2024/01/30 09:47:05;;;;;;;23.13;16.20;;;;;;;3.62;100.00;101552.41;5032922;28;20311;-65
2024/01/30 09:49:35;;;;;;;22.50;16.53;;;;;;;3.82;100.00;101546.41;5042107;28;20571;-67
2024/01/30 09:52:05;;;;;;;20.83;16.00;;;;;;;3.95;100.00;101550.59;5052107;28;20767;-68
2024/01/30 09:54:31;;;;;;;19.40;16.10;;;;;;;4.08;100.00;101550.56;5034686;28;20555;-68
2024/01/30 09:56:57;;;;;;;23.97;17.27;;;;;;;3.99;100.00;101547.19;5033264;28;20195;-66
2024/01/30 09:59:22;;;;;;;20.23;15.70;;;;;;;3.67;100.00;101553.25;5034629;28;20637;-68
2024/01/30 10:01:48;;;;;;;25.80;15.63;;;;;;;3.76;100.00;101549.81;5050920;28;20246;-67
2024/01/30 10:04:14;;;;;;;20.50;14.87;;;;;;;3.96;100.00;101554.00;5036480;28;20613;-69
2024/01/30 10:06:40;;;;;;;19.47;15.97;;;;;;;4.16;100.00;101546.28;5033573;28;20223;-65
2024/01/30 10:09:05;;;;;;;20.43;16.23;;;;;;;4.33;100.00;101544.50;5032712;28;20663;-66
2024/01/30 10:11:30;;;;;;;22.70;15.37;;;;;;;4.33;100.00;101530.91;5047228;28;20223;-66
2024/01/30 10:13:56;;;;;;;21.03;15.67;;;;;;;3.86;100.00;101535.38;5042613;28;20551;-67
2024/01/30 10:16:21;;;;;;;22.07;15.93;;;;;;;3.54;100.00;101538.84;5034562;28;20252;-66
2024/01/30 10:18:47;;;;;;;18.60;15.67;;;;;;;4.02;100.00;101531.06;5033770;28;20533;-67
2024/01/30 10:21:12;;;;;;;20.73;15.53;;;;;;;3.78;100.00;101532.84;5035160;28;20235;-66
2024/01/30 10:23:38;;;;;;;18.40;16.47;;;;;;;4.23;100.00;101537.75;5046974;28;20189;-66
2024/01/30 10:26:07;;;;;;;20.13;16.20;;;;;;;4.57;100.00;101540.09;5034209;28;20235;-66
2024/01/30 10:28:33;;;;;;;17.73;15.77;;;;;;;4.85;100.00;101534.81;5032640;28;20665;-68
2024/01/30 10:30:59;;;;;;;19.63;15.90;;;;;;;5.08;100.00;101538.88;5033261;28;20243;-67
2024/01/30 10:33:26;;;;;;;18.93;15.70;;;;;;;4.91;100.00;101532.22;5049185;28;20272;-67
2024/01/30 10:35:51;;;;;;;18.67;14.77;;;;;;;4.97;100.00;101533.88;5032529;28;20182;-67
2024/01/30 10:38:20;;;;;;;19.67;16.43;;;;;;;4.92;100.00;101535.63;5033757;28;20192;-67
2024/01/30 10:40:47;;;;;;;20.10;14.80;;;;;;;5.12;100.00;101538.84;5018916;28;20783;-67
2024/01/30 10:43:16;;;;;;;19.40;15.17;;;;;;;5.24;100.00;101542.16;5042129;28;20185;-64
2024/01/30 10:45:45;;;;;;;22.47;17.03;;;;;;;5.36;100.00;101539.47;5033709;28;20244;-66
2024/01/30 10:48:12;;;;;;;21.70;15.70;;;;;;;5.49;100.00;101535.09;5032291;28;20231;-65
2024/01/30 10:50:40;;;;;;;19.73;14.43;;;;;;;5.43;100.00;101527.50;5033044;28;20307;-64
2024/01/30 10:53:07;;;;;;;20.00;14.60;;;;;;;5.89;100.00;101529.56;5038954;28;20181;-65
2024/01/30 10:55:34;;;;;;;18.03;15.43;;;;;;;5.85;100.00;101533.00;5032283;28;20320;-64
2024/01/30 10:58:00;;;;;;;18.53;14.47;;;;;;;5.58;100.00;101532.47;5031762;28;20182;-64
2024/01/30 11:00:26;;;;;;;19.03;15.47;;;;;;;5.43;100.00;101530.91;5027873;28;20242;-66
2024/01/30 11:02:52;;;;;;;18.60;14.37;;;;;;;5.44;100.00;101522.38;5042247;28;20170;-64
2024/01/30 11:05:26;;;;;;;17.53;14.87;;;;;;;5.89;100.00;101521.03;5022138;28;20190;-64